createdAt,value
2023-04-06T00:04:36.019Z,10.95
2023-04-06T00:09:34.836Z,11.33
2023-04-06T00:14:35.034Z,13.15
2023-04-06T00:19:40.188Z,13.13
2023-04-06T00:24:39.098Z,11.90
2023-04-06T00:29:39.837Z,13.20
2023-04-06T00:34:39.018Z,12.93
2023-04-06T00:39:37.837Z,13.15
2023-04-06T00:44:38.050Z,12.70
2023-04-06T00:49:37.226Z,13.25
2023-04-06T00:54:36.067Z,11.60
2023-04-06T00:59:36.046Z,11.47
2023-04-06T01:04:38.500Z,12.03
2023-04-06T01:14:48.323Z,10.70
2023-04-06T01:19:50.443Z,11.70
2023-04-06T01:24:58.056Z,12.30
2023-04-06T01:30:25.932Z,12.47
2023-04-06T01:40:44.857Z,10.70
2023-04-06T01:45:44.254Z,11.18
2023-04-06T01:50:48.590Z,11.23
2023-04-06T01:55:54.280Z,11.02
2023-04-06T02:01:01.530Z,10.95
2023-04-06T02:06:07.445Z,11.02
2023-04-06T02:11:12.409Z,10.85
2023-04-06T02:16:23.489Z,11.38
2023-04-06T02:21:22.414Z,11.68
2023-04-06T02:26:22.738Z,11.48
2023-04-06T02:31:21.813Z,10.90
2023-04-06T02:36:21.480Z,10.25
2023-04-06T02:41:20.538Z,11.07
2023-04-06T02:46:21.213Z,12.60
2023-04-06T02:51:20.141Z,11.30
2023-04-06T02:56:24.901Z,11.77
2023-04-06T03:01:28.953Z,12.38
2023-04-06T03:06:32.647Z,12.43
2023-04-06T03:11:41.092Z,11.55
2023-04-06T03:16:41.419Z,12.15
2023-04-06T03:21:41.199Z,11.40
2023-04-06T03:26:40.672Z,12.05
2023-04-06T03:31:42.222Z,12.32
2023-04-06T03:37:10.266Z,12.25
2023-04-06T03:42:16.440Z,13.68
2023-04-06T03:47:24.080Z,14.18
2023-04-06T03:52:27.286Z,11.88
2023-04-06T03:57:26.184Z,11.75
2023-04-06T04:02:26.538Z,11.82
2023-04-06T04:07:25.527Z,12.18
2023-04-06T04:12:24.429Z,12.35
2023-04-06T04:17:24.225Z,12.48
2023-04-06T04:22:24.625Z,13.30
2023-04-06T04:27:24.009Z,12.77
2023-04-06T04:32:24.524Z,12.75
2023-04-06T04:37:25.098Z,14.40
2023-04-06T04:42:28.173Z,14.00
2023-04-06T04:47:30.290Z,15.18
2023-04-06T04:52:31.214Z,17.30
2023-04-06T04:57:41.801Z,17.13
2023-04-06T05:02:41.664Z,15.02
2023-04-06T05:07:52.353Z,15.60
2023-04-06T05:13:01.519Z,16.00
2023-04-06T05:18:01.254Z,20.77
2023-04-06T05:23:06.346Z,15.65
2023-04-06T05:28:06.854Z,13.88
2023-04-06T05:33:08.822Z,14.95
2023-04-06T05:38:22.645Z,15.05
2023-04-06T05:43:23.292Z,14.43
2023-04-06T05:48:27.329Z,14.82
2023-04-06T05:53:30.082Z,17.45
2023-04-06T05:58:32.249Z,16.42
2023-04-06T06:03:32.443Z,15.90
2023-04-06T06:08:33.076Z,16.30
2023-04-06T06:13:35.096Z,14.20
2023-04-06T06:18:34.470Z,15.23
2023-04-06T06:23:35.225Z,16.30
2023-04-06T06:28:34.583Z,16.35
2023-04-06T06:33:33.794Z,17.50
2023-04-06T06:38:34.152Z,18.40
2023-04-06T06:43:33.273Z,15.40
2023-04-06T06:48:35.484Z,16.52
2023-04-06T06:53:35.848Z,14.82
2023-04-06T06:58:34.818Z,16.70
2023-04-06T07:03:33.721Z,14.38
2023-04-06T07:08:32.863Z,13.68
2023-04-06T07:13:33.655Z,14.05
2023-04-06T07:18:36.113Z,16.20
2023-04-06T07:23:36.610Z,14.15
2023-04-06T07:28:37.105Z,14.77
2023-04-06T07:33:36.651Z,16.20
2023-04-06T07:38:35.678Z,17.20
2023-04-06T07:43:36.094Z,15.02
2023-04-06T07:48:38.578Z,13.23
2023-04-06T07:53:38.358Z,13.75
2023-04-06T07:58:38.999Z,13.23
2023-04-06T08:03:38.443Z,13.60
2023-04-06T08:08:37.579Z,13.75
2023-04-06T08:13:36.536Z,13.73
2023-04-06T08:18:37.107Z,14.65
2023-04-06T08:23:36.076Z,12.63
2023-04-06T08:28:35.514Z,15.93
2023-04-06T08:33:37.720Z,14.23
2023-04-06T08:38:36.745Z,14.00
2023-04-06T08:43:38.855Z,12.90
2023-04-06T08:48:40.516Z,13.45
2023-04-06T08:53:39.792Z,12.40
2023-04-06T08:58:42.144Z,12.35
2023-04-06T09:03:44.533Z,14.48
2023-04-06T09:08:43.886Z,11.77
2023-04-06T09:13:50.817Z,11.15
2023-04-06T09:18:51.851Z,12.88
2023-04-06T09:24:00.909Z,12.98
2023-04-06T09:29:02.515Z,12.10
2023-04-06T09:34:03.403Z,12.40
2023-04-06T09:39:04.672Z,13.43
2023-04-06T09:44:07.854Z,14.40
2023-04-06T09:54:09.570Z,13.65
2023-04-06T09:59:15.666Z,13.15
2023-04-06T10:04:31.297Z,13.75
2023-04-06T10:09:36.581Z,11.52
2023-04-06T10:14:37.966Z,14.95
2023-04-06T10:19:48.695Z,11.07
2023-04-06T10:24:47.680Z,11.70
2023-04-06T10:29:47.909Z,12.40
2023-04-06T10:34:48.511Z,12.23
2023-04-06T10:39:55.924Z,12.50
2023-04-06T10:44:54.990Z,10.57
2023-04-06T10:49:55.179Z,9.63
2023-04-06T10:54:55.945Z,10.32
2023-04-06T10:59:56.383Z,10.32
2023-04-06T11:05:00.652Z,10.20
2023-04-06T11:10:14.018Z,11.35
2023-04-06T11:15:15.838Z,13.13
2023-04-06T11:20:16.244Z,10.98
2023-04-06T11:25:17.482Z,10.95
2023-04-06T11:30:17.080Z,10.57
2023-04-06T11:35:24.318Z,12.35
2023-04-06T11:40:25.745Z,9.88
2023-04-06T11:45:25.129Z,11.02
2023-04-06T11:50:25.701Z,10.82
2023-04-06T11:55:24.627Z,10.65
2023-04-06T12:00:24.190Z,10.35
2023-04-06T12:05:22.963Z,10.93
2023-04-06T12:10:23.419Z,10.35
2023-04-06T12:15:28.139Z,8.93
2023-04-06T12:20:27.733Z,8.55
2023-04-06T12:25:28.334Z,7.85
2023-04-06T12:30:28.127Z,10.48
2023-04-06T12:35:27.208Z,8.30
2023-04-06T12:40:28.066Z,8.27
2023-04-06T12:45:28.369Z,8.73
2023-04-06T12:50:27.774Z,8.45
2023-04-06T12:55:31.632Z,7.43
2023-04-06T13:00:31.841Z,6.85
2023-04-06T13:05:32.391Z,8.05
2023-04-06T13:10:33.453Z,7.20
2023-04-06T13:15:33.254Z,7.53
2023-04-06T13:20:35.400Z,5.88
2023-04-06T13:25:35.785Z,5.70
2023-04-06T13:30:34.773Z,6.75
2023-04-06T13:35:33.673Z,6.68
2023-04-06T13:40:32.694Z,6.32
2023-04-06T13:45:33.092Z,6.32
2023-04-06T13:50:32.137Z,5.00
2023-04-06T13:55:32.298Z,7.97
2023-04-06T14:00:32.661Z,7.38
2023-04-06T14:05:33.802Z,12.65
2023-04-06T14:10:32.884Z,5.90
2023-04-06T14:15:33.176Z,6.30
2023-04-06T14:20:33.748Z,5.40
2023-04-06T14:25:35.884Z,5.10
2023-04-06T14:30:36.252Z,6.60
2023-04-06T14:35:35.001Z,5.78
2023-04-06T14:40:37.303Z,9.95
2023-04-06T14:45:37.904Z,6.20
2023-04-06T14:50:36.683Z,5.55
2023-04-06T14:55:35.563Z,6.35
2023-04-06T15:00:34.373Z,5.68
2023-04-06T15:05:36.180Z,6.40
2023-04-06T15:10:35.082Z,5.72
2023-04-06T15:15:33.958Z,4.93
2023-04-06T15:20:34.332Z,5.70
2023-04-06T15:25:35.837Z,5.63
2023-04-06T15:30:37.590Z,5.40
2023-04-06T15:35:41.138Z,5.25
2023-04-06T15:40:45.849Z,5.43
2023-04-06T15:45:45.170Z,5.80
2023-04-06T15:50:48.556Z,5.00
2023-04-06T15:55:47.490Z,6.78
2023-04-06T16:00:46.341Z,5.70
2023-04-06T16:05:59.189Z,8.07
2023-04-06T16:11:03.752Z,5.68
2023-04-06T16:16:04.061Z,5.72
2023-04-06T16:21:05.617Z,5.45
2023-04-06T16:26:13.092Z,7.50
2023-04-06T16:31:19.375Z,6.07
2023-04-06T16:36:25.121Z,6.43
2023-04-06T16:41:25.067Z,9.00
2023-04-06T16:46:24.407Z,7.00
2023-04-06T16:51:24.889Z,8.23
2023-04-06T16:56:23.627Z,6.80
2023-04-06T17:01:26.121Z,7.03
2023-04-06T17:06:27.170Z,6.07
2023-04-06T17:11:32.620Z,6.03
2023-04-06T17:16:38.649Z,5.80
2023-04-06T17:21:40.725Z,5.88
2023-04-06T17:26:40.541Z,5.30
2023-04-06T17:31:39.426Z,5.35
2023-04-06T17:36:39.484Z,4.72
2023-04-06T17:41:41.333Z,8.25
2023-04-06T17:46:40.215Z,6.03
2023-04-06T17:51:40.868Z,4.65
2023-04-06T17:56:42.430Z,4.55
2023-04-06T18:01:41.338Z,7.47
2023-04-06T18:06:41.789Z,10.77
2023-04-06T18:11:40.536Z,12.10
2023-04-06T18:16:40.977Z,8.88
2023-04-06T18:21:41.442Z,6.43
2023-04-06T18:26:40.334Z,8.13
2023-04-06T18:31:39.193Z,7.82
2023-04-06T18:36:43.606Z,7.63
2023-04-06T18:41:44.122Z,6.07
2023-04-06T18:46:47.129Z,6.45
2023-04-06T18:51:52.459Z,8.88
2023-04-06T18:56:54.464Z,10.07
2023-04-06T19:01:55.952Z,9.35
2023-04-06T19:06:57.972Z,10.98
2023-04-06T19:11:57.652Z,7.22
2023-04-06T19:16:58.306Z,6.78
2023-04-06T19:22:03.361Z,6.90
2023-04-06T19:27:03.854Z,6.93
2023-04-06T19:32:07.744Z,5.75
2023-04-06T19:37:08.804Z,5.97
2023-04-06T19:42:10.434Z,6.57
2023-04-06T19:47:11.944Z,5.88
2023-04-06T19:52:12.491Z,8.75
2023-04-06T19:57:12.119Z,7.15
2023-04-06T20:02:11.003Z,7.05
2023-04-06T20:07:11.223Z,7.57
2023-04-06T20:12:10.151Z,7.15
2023-04-06T20:17:09.095Z,9.18
2023-04-06T20:22:08.411Z,7.88
2023-04-06T20:27:08.469Z,12.48
2023-04-06T20:32:10.668Z,9.43
2023-04-06T20:37:09.829Z,8.27
2023-04-06T20:42:10.387Z,8.32
2023-04-06T20:47:09.170Z,8.82
2023-04-06T20:52:08.361Z,7.28
2023-04-06T20:57:07.109Z,8.48
2023-04-06T21:02:07.319Z,7.28
2023-04-06T21:07:06.725Z,7.65
2023-04-06T21:12:06.883Z,8.20
2023-04-06T21:17:07.786Z,7.40
2023-04-06T21:22:06.661Z,9.63
2023-04-06T21:27:05.402Z,8.70
2023-04-06T21:32:08.681Z,6.95
2023-04-06T21:37:07.534Z,8.38
2023-04-06T21:42:06.840Z,9.40
2023-04-06T21:47:05.755Z,8.30
2023-04-06T21:52:06.099Z,8.95
2023-04-06T21:57:04.977Z,7.85
2023-04-06T22:02:03.904Z,7.28
2023-04-06T22:07:02.734Z,7.38
2023-04-06T22:12:02.864Z,8.20
2023-04-06T22:17:01.809Z,7.53
2023-04-06T22:22:00.615Z,7.60
2023-04-06T22:26:59.537Z,7.55
2023-04-06T22:31:59.752Z,7.28
2023-04-06T22:36:58.546Z,7.68
2023-04-06T22:41:57.450Z,8.05
2023-04-06T22:46:56.458Z,8.27
2023-04-06T22:51:56.666Z,7.70
2023-04-06T22:56:56.065Z,7.70
2023-04-06T23:01:54.984Z,7.40
2023-04-06T23:06:53.767Z,8.40
2023-04-06T23:11:53.885Z,8.80
2023-04-06T23:16:52.759Z,7.53
2023-04-06T23:21:51.607Z,8.57
2023-04-06T23:26:50.385Z,7.90
2023-04-06T23:31:50.507Z,8.80
2023-04-06T23:36:49.283Z,8.35
2023-04-06T23:41:47.976Z,8.07
2023-04-06T23:46:46.947Z,8.52
2023-04-06T23:51:47.086Z,8.98
2023-04-06T23:56:46.334Z,7.95
